sensor_id;sensor_type;location;lat;lon;timestamp;pressure;altitude;pressure_sealevel;temperature;humidity
59315;BME280;46521;50.160;20.802;2022-11-14T00:07:04;100927.91;;;6.15;78.78
59315;BME280;46521;50.160;20.802;2022-11-14T00:17:06;100915.83;;;6.12;78.93
59315;BME280;46521;50.160;20.802;2022-11-14T00:27:07;100905.42;;;6.10;79.17
59315;BME280;46521;50.160;20.802;2022-11-14T00:37:09;100896.61;;;6.11;79.28
59315;BME280;46521;50.160;20.802;2022-11-14T00:47:10;100905.31;;;6.12;79.20
59315;BME280;46521;50.160;20.802;2022-11-14T00:57:11;100896.94;;;6.07;79.89
59315;BME280;46521;50.160;20.802;2022-11-14T01:07:13;100876.25;;;6.02;79.63
59315;BME280;46521;50.160;20.802;2022-11-14T01:17:14;100857.00;;;6.02;80.49
59315;BME280;46521;50.160;20.802;2022-11-14T01:27:16;100849.13;;;6.02;80.18
59315;BME280;46521;50.160;20.802;2022-11-14T01:37:17;100841.35;;;6.00;79.84
59315;BME280;46521;50.160;20.802;2022-11-14T01:47:22;100846.72;;;5.99;80.33
59315;BME280;46521;50.160;20.802;2022-11-14T01:57:27;100847.69;;;5.98;80.48
59315;BME280;46521;50.160;20.802;2022-11-14T02:07:32;100849.98;;;6.02;80.96
59315;BME280;46521;50.160;20.802;2022-11-14T02:17:35;100845.56;;;6.03;80.43
59315;BME280;46521;50.160;20.802;2022-11-14T02:27:38;100837.36;;;6.07;81.17
59315;BME280;46521;50.160;20.802;2022-11-14T02:37:40;100838.61;;;6.15;80.56
59315;BME280;46521;50.160;20.802;2022-11-14T02:47:41;100837.30;;;6.20;80.94
59315;BME280;46521;50.160;20.802;2022-11-14T02:57:43;100837.08;;;6.23;80.44
59315;BME280;46521;50.160;20.802;2022-11-14T03:07:44;100819.45;;;6.25;80.63
59315;BME280;46521;50.160;20.802;2022-11-14T03:17:46;100804.02;;;6.21;80.80
59315;BME280;46521;50.160;20.802;2022-11-14T03:27:47;100790.24;;;6.17;80.95
59315;BME280;46521;50.160;20.802;2022-11-14T03:37:49;100785.96;;;6.16;80.73
59315;BME280;46521;50.160;20.802;2022-11-14T03:47:53;100774.48;;;6.17;80.79
59315;BME280;46521;50.160;20.802;2022-11-14T03:57:55;100773.44;;;6.20;80.92
59315;BME280;46521;50.160;20.802;2022-11-14T04:07:56;100770.47;;;6.24;80.91
59315;BME280;46521;50.160;20.802;2022-11-14T04:17:58;100771.19;;;6.26;80.29
59315;BME280;46521;50.160;20.802;2022-11-14T04:27:59;100770.25;;;6.27;80.15
59315;BME280;46521;50.160;20.802;2022-11-14T04:38:01;100772.65;;;6.30;80.14
59315;BME280;46521;50.160;20.802;2022-11-14T04:48:03;100761.91;;;6.34;80.29
59315;BME280;46521;50.160;20.802;2022-11-14T04:58:05;100767.88;;;6.36;80.28
59315;BME280;46521;50.160;20.802;2022-11-14T05:08:06;100759.89;;;6.37;80.76
59315;BME280;46521;50.160;20.802;2022-11-14T05:18:08;100758.09;;;6.38;80.38
59315;BME280;46521;50.160;20.802;2022-11-14T05:28:09;100756.66;;;6.34;80.76
59315;BME280;46521;50.160;20.802;2022-11-14T05:38:10;100762.36;;;6.27;80.15
59315;BME280;46521;50.160;20.802;2022-11-14T05:48:12;100757.45;;;6.23;80.33
59315;BME280;46521;50.160;20.802;2022-11-14T05:58:13;100754.10;;;6.21;80.93
59315;BME280;46521;50.160;20.802;2022-11-14T06:08:15;100753.99;;;6.22;80.89
59315;BME280;46521;50.160;20.802;2022-11-14T06:18:16;100761.39;;;6.28;80.51
59315;BME280;46521;50.160;20.802;2022-11-14T06:28:18;100771.79;;;6.30;80.33
59315;BME280;46521;50.160;20.802;2022-11-14T06:38:19;100776.22;;;6.29;80.58
59315;BME280;46521;50.160;20.802;2022-11-14T06:48:20;100760.56;;;6.28;80.38
59315;BME280;46521;50.160;20.802;2022-11-14T06:58:27;100756.39;;;6.25;81.13
59315;BME280;46521;50.160;20.802;2022-11-14T07:08:29;100754.70;;;6.24;81.01
59315;BME280;46521;50.160;20.802;2022-11-14T07:18:32;100759.96;;;6.24;80.45
59315;BME280;46521;50.160;20.802;2022-11-14T07:28:40;100752.53;;;6.18;80.63
59315;BME280;46521;50.160;20.802;2022-11-14T07:38:43;100745.14;;;6.23;81.09
59315;BME280;46521;50.160;20.802;2022-11-14T07:48:44;100736.55;;;6.21;80.41
59315;BME280;46521;50.160;20.802;2022-11-14T07:58:46;100736.44;;;6.23;80.50
59315;BME280;46521;50.160;20.802;2022-11-14T08:08:47;100743.98;;;6.27;80.48
59315;BME280;46521;50.160;20.802;2022-11-14T08:18:49;100731.33;;;6.33;80.87
59315;BME280;46521;50.160;20.802;2022-11-14T08:28:53;100721.27;;;6.26;80.36
59315;BME280;46521;50.160;20.802;2022-11-14T08:38:55;100707.20;;;6.27;81.05
59315;BME280;46521;50.160;20.802;2022-11-14T08:48:56;100709.82;;;6.27;80.76
59315;BME280;46521;50.160;20.802;2022-11-14T08:58:58;100707.68;;;6.33;80.89
59315;BME280;46521;50.160;20.802;2022-11-14T09:08:59;100700.86;;;6.30;80.20
59315;BME280;46521;50.160;20.802;2022-11-14T09:19:01;100701.59;;;6.32;81.00
59315;BME280;46521;50.160;20.802;2022-11-14T09:29:02;100686.89;;;6.29;80.58
59315;BME280;46521;50.160;20.802;2022-11-14T09:39:06;100685.47;;;6.25;80.83
59315;BME280;46521;50.160;20.802;2022-11-14T09:49:23;100668.73;;;6.26;81.24
59315;BME280;46521;50.160;20.802;2022-11-14T09:59:26;100681.17;;;6.36;81.30
59315;BME280;46521;50.160;20.802;2022-11-14T10:10:24;100677.86;;;6.45;81.06
59315;BME280;46521;50.160;20.802;2022-11-14T10:20:40;100664.97;;;6.53;80.57
59315;BME280;46521;50.160;20.802;2022-11-14T10:30:45;100656.84;;;6.56;80.20
59315;BME280;46521;50.160;20.802;2022-11-14T10:40:54;100638.45;;;6.56;81.09
59315;BME280;46521;50.160;20.802;2022-11-14T10:51:02;100637.16;;;6.62;80.75
59315;BME280;46521;50.160;20.802;2022-11-14T11:11:40;100604.89;;;6.71;81.07
59315;BME280;46521;50.160;20.802;2022-11-14T11:21:52;100596.89;;;6.73;80.12
59315;BME280;46521;50.160;20.802;2022-11-14T11:31:55;100595.91;;;6.74;80.81
59315;BME280;46521;50.160;20.802;2022-11-14T11:42:01;100586.96;;;6.76;80.10
59315;BME280;46521;50.160;20.802;2022-11-14T12:02:28;100565.11;;;6.76;80.74
59315;BME280;46521;50.160;20.802;2022-11-14T12:53:37;100540.24;;;6.68;80.78
59315;BME280;46521;50.160;20.802;2022-11-14T13:03:40;100534.28;;;6.66;80.50
59315;BME280;46521;50.160;20.802;2022-11-14T13:14:00;100527.09;;;6.68;80.41
59315;BME280;46521;50.160;20.802;2022-11-14T13:24:20;100516.34;;;6.72;80.45
59315;BME280;46521;50.160;20.802;2022-11-14T13:55:01;100481.95;;;6.63;80.12
59315;BME280;46521;50.160;20.802;2022-11-14T14:25:25;100474.67;;;6.56;80.75
59315;BME280;46521;50.160;20.802;2022-11-14T14:35:31;100471.92;;;6.57;80.53
59315;BME280;46521;50.160;20.802;2022-11-14T14:45:50;100448.27;;;6.57;80.13
59315;BME280;46521;50.160;20.802;2022-11-14T14:55:53;100446.95;;;6.52;80.21
59315;BME280;46521;50.160;20.802;2022-11-14T15:06:00;100445.42;;;6.49;80.76
59315;BME280;46521;50.160;20.802;2022-11-14T15:16:02;100434.91;;;6.49;80.67
59315;BME280;46521;50.160;20.802;2022-11-14T15:26:30;100427.03;;;6.49;80.02
59315;BME280;46521;50.160;20.802;2022-11-14T15:36:34;100421.89;;;6.47;80.33
59315;BME280;46521;50.160;20.802;2022-11-14T15:46:45;100415.54;;;6.50;80.55
59315;BME280;46521;50.160;20.802;2022-11-14T15:56:47;100414.72;;;6.49;80.96
59315;BME280;46521;50.160;20.802;2022-11-14T16:06:49;100416.27;;;6.52;80.93
59315;BME280;46521;50.160;20.802;2022-11-14T16:16:50;100418.66;;;6.55;80.87
59315;BME280;46521;50.160;20.802;2022-11-14T16:26:52;100402.77;;;6.57;80.10
59315;BME280;46521;50.160;20.802;2022-11-14T16:37:01;100403.59;;;6.57;80.76
59315;BME280;46521;50.160;20.802;2022-11-14T16:47:02;100398.20;;;6.59;81.05
59315;BME280;46521;50.160;20.802;2022-11-14T16:57:04;100391.72;;;6.63;80.93
59315;BME280;46521;50.160;20.802;2022-11-14T17:07:05;100386.09;;;6.67;80.25
59315;BME280;46521;50.160;20.802;2022-11-14T17:17:06;100382.97;;;6.74;81.04
59315;BME280;46521;50.160;20.802;2022-11-14T17:27:08;100371.63;;;6.73;80.43
59315;BME280;46521;50.160;20.802;2022-11-14T17:37:12;100360.29;;;6.73;80.61
59315;BME280;46521;50.160;20.802;2022-11-14T17:47:14;100358.36;;;6.75;80.81
59315;BME280;46521;50.160;20.802;2022-11-14T17:57:16;100358.36;;;6.75;80.69
59315;BME280;46521;50.160;20.802;2022-11-14T18:07:17;100353.23;;;6.73;80.68
59315;BME280;46521;50.160;20.802;2022-11-14T18:17:20;100340.46;;;6.68;80.21
59315;BME280;46521;50.160;20.802;2022-11-14T18:27:21;100339.52;;;6.70;80.51
59315;BME280;46521;50.160;20.802;2022-11-14T18:37:23;100340.02;;;6.63;80.71
59315;BME280;46521;50.160;20.802;2022-11-14T18:47:24;100333.33;;;6.59;80.51
59315;BME280;46521;50.160;20.802;2022-11-14T18:57:26;100318.66;;;6.57;81.24
59315;BME280;46521;50.160;20.802;2022-11-14T19:07:27;100323.92;;;6.57;80.73
59315;BME280;46521;50.160;20.802;2022-11-14T19:17:30;100326.14;;;6.61;80.79
59315;BME280;46521;50.160;20.802;2022-11-14T19:27:31;100318.25;;;6.61;81.05
59315;BME280;46521;50.160;20.802;2022-11-14T19:37:33;100298.46;;;6.57;80.82
59315;BME280;46521;50.160;20.802;2022-11-14T19:47:34;100300.64;;;6.52;81.24
59315;BME280;46521;50.160;20.802;2022-11-14T19:57:35;100295.89;;;6.46;81.33
59315;BME280;46521;50.160;20.802;2022-11-14T20:07:37;100299.21;;;6.48;81.36
59315;BME280;46521;50.160;20.802;2022-11-14T20:17:38;100290.63;;;6.46;81.59
59315;BME280;46521;50.160;20.802;2022-11-14T20:27:40;100271.51;;;6.44;80.97
59315;BME280;46521;50.160;20.802;2022-11-14T20:37:41;100269.61;;;6.46;81.23
59315;BME280;46521;50.160;20.802;2022-11-14T20:47:43;100254.34;;;6.40;80.89
59315;BME280;46521;50.160;20.802;2022-11-14T20:57:45;100249.34;;;6.37;81.50
59315;BME280;46521;50.160;20.802;2022-11-14T21:07:46;100234.34;;;6.27;81.30
59315;BME280;46521;50.160;20.802;2022-11-14T21:17:48;100230.28;;;6.23;81.34
59315;BME280;46521;50.160;20.802;2022-11-14T21:27:49;100216.83;;;6.17;81.29
59315;BME280;46521;50.160;20.802;2022-11-14T21:37:51;100210.15;;;6.12;80.96
59315;BME280;46521;50.160;20.802;2022-11-14T21:47:52;100199.89;;;6.09;81.42
59315;BME280;46521;50.160;20.802;2022-11-14T21:57:54;100191.81;;;6.01;80.93
59315;BME280;46521;50.160;20.802;2022-11-14T22:07:55;100182.52;;;5.97;81.42
59315;BME280;46521;50.160;20.802;2022-11-14T22:17:57;100182.03;;;5.92;81.50
59315;BME280;46521;50.160;20.802;2022-11-14T22:27:58;100172.88;;;5.86;81.59
59315;BME280;46521;50.160;20.802;2022-11-14T22:37:59;100171.20;;;5.85;81.80
59315;BME280;46521;50.160;20.802;2022-11-14T22:48:01;100167.88;;;5.83;81.33
59315;BME280;46521;50.160;20.802;2022-11-14T22:58:02;100168.58;;;5.85;81.70
59315;BME280;46521;50.160;20.802;2022-11-14T23:08:04;100166.91;;;5.84;81.67
59315;BME280;46521;50.160;20.802;2022-11-14T23:18:05;100164.65;;;5.80;81.74
59315;BME280;46521;50.160;20.802;2022-11-14T23:28:07;100146.28;;;5.80;81.88
59315;BME280;46521;50.160;20.802;2022-11-14T23:38:08;100143.53;;;5.81;81.30
59315;BME280;46521;50.160;20.802;2022-11-14T23:58:29;100124.38;;;5.69;81.19
